Time;durP1;ratioP1;P1;durP2;ratioP2;P2;SDS_P1;SDS_P2;PMS_P1;PMS_P2;Temp;Humidity;BMP_temperature;BMP_pressure;BME280_temperature;BME280_humidity;BME280_pressure;Samples;Min_cycle;Max_cycle;Signal;HPM_P1;HPM_P2
2024/03/23 00:00:05;;;;;;;7.28;1.42;;;11.00;99.90;;;;;;5020465;28;20037;-72
2024/03/23 00:02:37;;;;;;;8.02;1.30;;;10.90;99.90;;;;;;5035625;28;20047;-71
2024/03/23 00:05:02;;;;;;;4.85;1.40;;;10.90;99.90;;;;;;5039761;28;20025;-71
2024/03/23 00:07:28;;;;;;;8.85;2.00;;;10.90;99.90;;;;;;5036241;28;20474;-71
2024/03/23 00:09:54;;;;;;;10.18;1.42;;;10.90;99.90;;;;;;5038065;28;20037;-72
2024/03/23 00:12:20;;;;;;;7.85;1.40;;;10.90;99.90;;;;;;5037644;28;20021;-71
2024/03/23 00:14:45;;;;;;;6.80;1.40;;;10.90;99.90;;;;;;5037625;28;20588;-71
2024/03/23 00:17:11;;;;;;;7.32;1.45;;;10.80;99.90;;;;;;5033370;28;20900;-71
2024/03/23 00:19:37;;;;;;;9.98;1.77;;;10.80;99.90;;;;;;5036847;28;20059;-71
2024/03/23 00:22:03;;;;;;;6.60;1.35;;;10.80;99.90;;;;;;5037135;28;20033;-72
2024/03/23 00:24:29;;;;;;;4.65;1.67;;;10.80;99.90;;;;;;5035689;28;20033;-71
2024/03/23 00:26:55;;;;;;;8.25;1.67;;;10.70;99.90;;;;;;5021151;28;20183;-71
2024/03/23 00:29:21;;;;;;;7.97;1.38;;;10.70;99.90;;;;;;5039062;28;20492;-72
2024/03/23 00:31:47;;;;;;;7.43;1.70;;;10.70;99.90;;;;;;5037676;28;20036;-71
2024/03/23 00:34:13;;;;;;;12.52;2.88;;;10.70;99.90;;;;;;5038528;28;20029;-71
2024/03/23 00:36:39;;;;;;;11.18;1.60;;;10.70;99.90;;;;;;5034272;28;20025;-71
2024/03/23 00:39:05;;;;;;;10.55;1.83;;;10.60;99.90;;;;;;5034364;28;20136;-72
2024/03/23 00:41:30;;;;;;;9.02;2.78;;;10.60;99.90;;;;;;5036482;28;20028;-71
2024/03/23 00:43:56;;;;;;;11.30;1.63;;;10.60;99.90;;;;;;5036682;28;20061;-71
2024/03/23 00:46:22;;;;;;;7.03;1.40;;;10.60;99.90;;;;;;5038831;28;20028;-71
2024/03/23 00:48:48;;;;;;;9.73;2.08;;;10.60;99.90;;;;;;5020391;28;20400;-71
2024/03/23 00:51:13;;;;;;;9.80;1.90;;;10.50;99.90;;;;;;5030981;28;20033;-71
2024/03/23 00:53:39;;;;;;;8.80;1.70;;;10.40;99.90;;;;;;5037706;28;20436;-71
2024/03/23 00:56:05;;;;;;;14.20;1.98;;;10.50;99.90;;;;;;5035109;28;20111;-71
2024/03/23 00:58:31;;;;;;;13.57;2.47;;;10.40;99.90;;;;;;5037724;28;20037;-71
2024/03/23 01:00:56;;;;;;;8.35;1.40;;;10.40;99.90;;;;;;5035327;28;20032;-71
2024/03/23 01:03:22;;;;;;;8.63;1.85;;;10.40;99.90;;;;;;5025712;28;20036;-72
2024/03/23 01:05:53;;;;;;;9.75;2.20;;;10.40;99.90;;;;;;5037640;28;20029;-72
2024/03/23 01:08:18;;;;;;;12.95;1.80;;;10.40;99.90;;;;;;5030934;28;20038;-71
2024/03/23 01:10:57;;;;;;;7.95;1.67;;;10.40;99.90;;;;;;5035410;28;20234;-72
2024/03/23 01:13:23;;;;;;;4.32;1.10;;;10.40;99.90;;;;;;5034452;28;20024;-71
2024/03/23 01:15:53;;;;;;;6.90;1.30;;;10.40;99.90;;;;;;5034758;28;20044;-71
2024/03/23 01:18:20;;;;;;;8.88;1.52;;;10.40;99.90;;;;;;5037051;28;20032;-72
2024/03/23 01:20:45;;;;;;;5.47;1.35;;;10.40;99.90;;;;;;5037115;28;20033;-71
2024/03/23 01:23:12;;;;;;;6.15;1.67;;;10.40;99.90;;;;;;5036029;28;20102;-72
2024/03/23 01:25:38;;;;;;;8.40;1.05;;;10.40;99.90;;;;;;5032785;28;20029;-71
2024/03/23 01:28:06;;;;;;;3.58;1.20;;;10.40;99.90;;;;;;5037170;28;20030;-71
2024/03/23 01:30:32;;;;;;;5.70;1.13;;;10.40;99.90;;;;;;5036593;28;20426;-72
2024/03/23 01:32:58;;;;;;;10.52;1.67;;;10.40;99.90;;;;;;5039757;28;20304;-71
2024/03/23 01:35:24;;;;;;;12.75;1.65;;;10.30;99.90;;;;;;5040838;28;20083;-71
2024/03/23 01:37:50;;;;;;;4.40;1.05;;;10.40;99.90;;;;;;5023080;28;20043;-71
2024/03/23 01:40:19;;;;;;;5.07;1.50;;;10.30;99.90;;;;;;5039118;28;20116;-71
2024/03/23 01:43:08;;;;;;;7.80;1.20;;;10.30;99.90;;;;;;5035687;28;20036;-72
2024/03/23 01:45:35;;;;;;;7.22;1.48;;;10.30;99.90;;;;;;5022209;28;20134;-71
2024/03/23 01:48:01;;;;;;;4.95;1.10;;;10.30;99.90;;;;;;5017996;28;20055;-71
2024/03/23 01:50:28;;;;;;;5.97;1.30;;;10.30;99.90;;;;;;5039728;28;20064;-71
2024/03/23 01:52:54;;;;;;;8.25;1.50;;;10.30;99.90;;;;;;5038699;28;20112;-71
2024/03/23 01:55:20;;;;;;;8.55;1.45;;;10.30;99.90;;;;;;5041420;28;20480;-71
2024/03/23 01:57:46;;;;;;;7.65;1.40;;;10.30;99.90;;;;;;5038342;28;20017;-71
2024/03/23 02:00:12;;;;;;;4.20;1.20;;;10.30;99.90;;;;;;5033298;28;20098;-71
2024/03/23 02:02:46;;;;;;;8.60;1.38;;;10.30;99.90;;;;;;5037301;28;20029;-71
2024/03/23 02:05:13;;;;;;;4.53;1.00;;;10.30;99.90;;;;;;5039919;28;20406;-71
2024/03/23 02:07:40;;;;;;;6.45;1.77;;;10.30;99.90;;;;;;5040951;28;20395;-71
2024/03/23 02:10:07;;;;;;;8.45;1.50;;;10.30;99.90;;;;;;5041836;28;20033;-71
2024/03/23 02:12:33;;;;;;;9.90;1.55;;;10.40;99.90;;;;;;5039849;28;20043;-71
2024/03/23 02:14:59;;;;;;;13.88;2.03;;;10.40;99.90;;;;;;5038399;28;20032;-71
2024/03/23 02:17:25;;;;;;;6.07;1.48;;;10.30;99.90;;;;;;5038863;28;20424;-71
2024/03/23 02:19:51;;;;;;;6.50;1.23;;;10.30;99.90;;;;;;5036019;28;20033;-71
2024/03/23 02:22:17;;;;;;;6.97;1.70;;;10.30;99.90;;;;;;5036921;28;20503;-71
2024/03/23 02:24:43;;;;;;;8.40;1.45;;;10.30;99.90;;;;;;5039083;28;20033;-71
2024/03/23 02:27:09;;;;;;;5.78;1.17;;;10.30;99.90;;;;;;5039289;28;20030;-71
2024/03/23 02:29:34;;;;;;;10.93;1.85;;;10.30;99.90;;;;;;5040440;28;20032;-71
2024/03/23 02:32:01;;;;;;;6.63;1.90;;;10.40;99.90;;;;;;5036237;28;20029;-71
2024/03/23 02:34:27;;;;;;;7.25;1.35;;;10.40;99.90;;;;;;5035197;28;20043;-71
2024/03/23 02:36:52;;;;;;;7.63;1.70;;;10.30;99.90;;;;;;5016520;28;20029;-71
2024/03/23 02:39:18;;;;;;;5.03;1.17;;;10.30;99.90;;;;;;5036906;28;20415;-71
2024/03/23 02:41:44;;;;;;;8.32;1.88;;;10.30;99.90;;;;;;5038883;28;20025;-71
2024/03/23 02:44:11;;;;;;;6.63;1.20;;;10.30;99.90;;;;;;5038994;28;20518;-71
2024/03/23 02:46:38;;;;;;;9.07;1.50;;;10.40;99.90;;;;;;5041015;28;20060;-71
2024/03/23 02:49:04;;;;;;;7.75;1.60;;;10.30;99.90;;;;;;5018120;28;20508;-71
2024/03/23 02:51:30;;;;;;;9.57;1.80;;;10.30;99.90;;;;;;5020268;28;20522;-71
2024/03/23 02:53:56;;;;;;;8.18;1.38;;;10.40;99.90;;;;;;5035133;28;20041;-71
2024/03/23 02:56:22;;;;;;;7.30;1.40;;;10.30;99.90;;;;;;5037071;28;20047;-71
2024/03/23 02:58:48;;;;;;;7.40;1.48;;;10.40;99.90;;;;;;5038010;28;20032;-71
2024/03/23 03:01:14;;;;;;;7.25;1.30;;;10.40;99.90;;;;;;5039448;28;20033;-71
2024/03/23 03:03:40;;;;;;;6.40;1.48;;;10.40;99.90;;;;;;5039866;28;20041;-71
2024/03/23 03:06:06;;;;;;;8.32;1.70;;;10.40;99.90;;;;;;5035638;28;20027;-71
2024/03/23 03:08:32;;;;;;;5.72;1.38;;;10.40;99.90;;;;;;5020096;28;20029;-71
2024/03/23 03:10:58;;;;;;;6.20;1.40;;;10.40;99.90;;;;;;5034893;28;20025;-71
2024/03/23 03:13:24;;;;;;;5.03;1.25;;;10.40;99.90;;;;;;5037679;28;20083;-71
2024/03/23 03:15:49;;;;;;;8.98;1.58;;;10.40;99.90;;;;;;5037617;28;20536;-71
2024/03/23 03:18:15;;;;;;;5.38;1.30;;;10.30;99.90;;;;;;5021474;28;20104;-71
2024/03/23 03:20:41;;;;;;;9.23;1.52;;;10.30;99.90;;;;;;5040077;28;20033;-71
2024/03/23 03:23:07;;;;;;;6.70;1.70;;;10.30;99.90;;;;;;5033027;28;20037;-71
2024/03/23 03:25:33;;;;;;;5.28;1.50;;;10.30;99.90;;;;;;5035240;28;20109;-71
2024/03/23 03:27:59;;;;;;;9.25;1.55;;;10.30;99.90;;;;;;5034700;28;20064;-71
2024/03/23 03:30:25;;;;;;;7.65;2.00;;;10.30;99.90;;;;;;5037577;28;20510;-71
2024/03/23 03:32:54;;;;;;;10.30;1.52;;;10.30;99.90;;;;;;5019347;28;20144;-71
2024/03/23 03:35:20;;;;;;;10.43;2.00;;;10.30;99.90;;;;;;5037600;28;20729;-71
2024/03/23 03:37:46;;;;;;;7.82;2.15;;;10.20;99.90;;;;;;5036879;28;20043;-71
2024/03/23 03:40:14;;;;;;;7.10;1.73;;;10.20;99.90;;;;;;5031868;28;20056;-71
2024/03/23 03:42:41;;;;;;;8.48;1.88;;;10.20;99.90;;;;;;5040970;28;20045;-71
2024/03/23 03:45:07;;;;;;;5.38;1.58;;;10.20;99.90;;;;;;5037284;28;20408;-71
2024/03/23 03:47:33;;;;;;;3.95;1.23;;;10.30;99.90;;;;;;5037823;28;20029;-71
2024/03/23 03:49:59;;;;;;;3.22;1.33;;;10.20;99.90;;;;;;5037991;28;20036;-71
2024/03/23 03:52:25;;;;;;;8.68;2.17;;;10.10;99.90;;;;;;5038941;28;20028;-71
2024/03/23 03:54:51;;;;;;;5.05;1.35;;;10.20;99.90;;;;;;5040128;28;20548;-71
2024/03/23 03:57:16;;;;;;;6.50;1.73;;;10.20;99.90;;;;;;5035503;28;20040;-71
2024/03/23 03:59:42;;;;;;;8.38;2.10;;;10.10;99.90;;;;;;5018388;28;20041;-71
2024/03/23 04:02:08;;;;;;;7.05;1.83;;;10.10;99.90;;;;;;5016865;28;20033;-71
2024/03/23 04:04:34;;;;;;;12.15;1.73;;;10.10;99.90;;;;;;5037767;28;20029;-71
2024/03/23 04:07:01;;;;;;;8.55;1.70;;;10.10;99.90;;;;;;5040516;28;20325;-71
2024/03/23 04:09:27;;;;;;;5.93;1.38;;;10.10;99.90;;;;;;5039792;28;20037;-70
2024/03/23 04:11:52;;;;;;;11.23;1.73;;;10.00;99.90;;;;;;5039658;28;20032;-70
2024/03/23 04:14:18;;;;;;;8.15;1.65;;;10.00;99.90;;;;;;5033952;28;20240;-71
2024/03/23 04:16:44;;;;;;;4.50;1.10;;;10.00;99.90;;;;;;5034970;28;20041;-71
2024/03/23 04:19:10;;;;;;;12.35;1.88;;;10.00;99.90;;;;;;5035948;28;20036;-71
2024/03/23 04:21:37;;;;;;;5.93;1.23;;;10.00;99.90;;;;;;5038322;28;20128;-71
2024/03/23 04:24:03;;;;;;;6.13;1.48;;;9.90;99.90;;;;;;5037489;28;20030;-71
2024/03/23 04:26:29;;;;;;;5.97;1.40;;;9.90;99.90;;;;;;5039553;28;20029;-71
2024/03/23 04:28:55;;;;;;;7.43;1.38;;;9.90;99.90;;;;;;5039528;28;20112;-71
2024/03/23 04:31:21;;;;;;;7.53;1.38;;;9.90;99.90;;;;;;5033814;28;20041;-71
2024/03/23 04:33:47;;;;;;;9.35;1.40;;;9.80;99.90;;;;;;5034761;28;20720;-71
2024/03/23 04:36:13;;;;;;;3.42;1.25;;;9.80;99.90;;;;;;5017032;28;20040;-71
2024/03/23 04:38:39;;;;;;;5.72;1.33;;;9.80;99.90;;;;;;5037453;28;20586;-71
2024/03/23 04:41:05;;;;;;;7.60;1.30;;;9.80;99.90;;;;;;5037634;28;20472;-71
2024/03/23 04:43:31;;;;;;;5.18;1.50;;;9.70;99.90;;;;;;5038819;28;20595;-71
2024/03/23 04:45:56;;;;;;;4.43;1.42;;;9.80;99.90;;;;;;5038782;28;20028;-71
2024/03/23 04:48:23;;;;;;;5.00;1.38;;;9.70;99.90;;;;;;5033890;28;20366;-71
2024/03/23 04:50:50;;;;;;;3.35;1.20;;;9.70;99.90;;;;;;5033345;28;20033;-71
2024/03/23 04:53:16;;;;;;;2.67;0.90;;;9.60;99.90;;;;;;5036800;28;20864;-71
2024/03/23 04:55:42;;;;;;;6.82;1.50;;;9.70;99.90;;;;;;5038086;28;20061;-71
2024/03/23 04:58:08;;;;;;;2.63;0.98;;;9.70;99.90;;;;;;5038281;28;20029;-71
2024/03/23 05:00:34;;;;;;;6.88;0.95;;;9.60;99.90;;;;;;5040960;28;20781;-72
2024/03/23 05:03:00;;;;;;;5.78;1.17;;;9.60;99.90;;;;;;5041527;28;20098;-72
2024/03/23 05:05:26;;;;;;;9.02;1.20;;;9.60;99.90;;;;;;5019431;28;20051;-71
2024/03/23 05:07:51;;;;;;;4.68;1.05;;;9.60;99.90;;;;;;5038170;28;20021;-71
2024/03/23 05:10:17;;;;;;;4.00;1.23;;;9.50;99.90;;;;;;5039631;28;20032;-71
2024/03/23 05:12:45;;;;;;;5.55;1.70;;;9.50;99.90;;;;;;5041566;28;20032;-70
2024/03/23 05:15:10;;;;;;;4.93;1.08;;;9.50;99.90;;;;;;5041566;28;20033;-70
2024/03/23 05:17:37;;;;;;;3.97;1.25;;;9.40;99.90;;;;;;5042703;28;20363;-71
2024/03/23 05:20:04;;;;;;;2.63;0.95;;;9.50;99.90;;;;;;5041304;28;20033;-72
2024/03/23 05:22:30;;;;;;;1.70;1.00;;;9.50;99.90;;;;;;5038349;28;20136;-71
2024/03/23 05:24:56;;;;;;;3.13;1.00;;;9.50;99.90;;;;;;5037454;28;20323;-71
2024/03/23 05:27:22;;;;;;;4.90;1.10;;;9.40;99.90;;;;;;5039621;28;20551;-71
2024/03/23 05:29:48;;;;;;;2.30;0.95;;;9.40;99.90;;;;;;5040391;28;20052;-71
2024/03/23 05:32:14;;;;;;;3.40;0.70;;;9.40;99.90;;;;;;5041791;28;20120;-71
2024/03/23 05:34:40;;;;;;;3.13;0.70;;;9.40;99.90;;;;;;5042846;28;20491;-71
2024/03/23 05:37:06;;;;;;;3.58;0.73;;;9.40;99.90;;;;;;5040850;28;20037;-71
2024/03/23 05:39:31;;;;;;;5.35;1.67;;;9.40;99.90;;;;;;5020368;28;20403;-71
2024/03/23 05:41:57;;;;;;;2.38;0.80;;;9.30;99.90;;;;;;5036927;28;20095;-71
2024/03/23 05:44:23;;;;;;;3.55;1.00;;;9.30;99.90;;;;;;5039102;28;20051;-71
2024/03/23 05:46:49;;;;;;;3.30;1.20;;;9.30;99.90;;;;;;5038304;28;20113;-70
2024/03/23 05:49:17;;;;;;;0.80;0.63;;;9.30;99.90;;;;;;5022828;28;20651;-71
2024/03/23 05:51:43;;;;;;;3.58;0.60;;;9.40;99.90;;;;;;5024118;28;20052;-71
2024/03/23 05:54:09;;;;;;;3.13;0.93;;;9.30;99.90;;;;;;5037254;28;20579;-71
2024/03/23 05:56:35;;;;;;;4.03;0.70;;;9.30;99.90;;;;;;5038066;28;20400;-71
2024/03/23 05:59:00;;;;;;;2.67;1.08;;;9.30;99.90;;;;;;5040630;28;20700;-71
2024/03/23 06:01:28;;;;;;;1.13;0.70;;;9.30;99.90;;;;;;5043064;28;20029;-71
2024/03/23 06:03:54;;;;;;;4.82;0.85;;;9.30;99.90;;;;;;5039541;28;20244;-71
2024/03/23 06:06:20;;;;;;;4.43;1.00;;;9.30;99.90;;;;;;5040508;28;20171;-71
2024/03/23 06:08:46;;;;;;;4.13;0.93;;;9.40;99.90;;;;;;5041720;28;20036;-70
2024/03/23 06:11:12;;;;;;;2.63;0.85;;;9.40;99.90;;;;;;5037651;28;20025;-71
2024/03/23 06:13:37;;;;;;;5.40;1.10;;;9.40;99.90;;;;;;5038063;28;20582;-70
2024/03/23 06:16:04;;;;;;;3.22;1.23;;;9.50;99.90;;;;;;5035956;28;20063;-71
2024/03/23 06:18:29;;;;;;;3.00;1.00;;;9.50;99.90;;;;;;5039755;28;20036;-70
2024/03/23 06:20:55;;;;;;;2.22;0.80;;;9.50;99.90;;;;;;5041460;28;20114;-70
2024/03/23 06:23:21;;;;;;;3.83;1.10;;;9.40;99.90;;;;;;5038267;28;21022;-71
2024/03/23 06:25:47;;;;;;;4.90;0.93;;;9.40;99.90;;;;;;5027279;28;20674;-71
2024/03/23 06:28:13;;;;;;;7.13;1.17;;;9.40;99.90;;;;;;5040314;28;20029;-71
2024/03/23 06:30:39;;;;;;;6.43;1.50;;;9.40;99.90;;;;;;5034960;28;20036;-71
2024/03/23 06:33:08;;;;;;;2.45;1.00;;;9.50;99.90;;;;;;5037968;28;20588;-70
2024/03/23 06:35:34;;;;;;;2.97;1.02;;;9.50;99.90;;;;;;5040245;28;20033;-71
2024/03/23 06:38:00;;;;;;;7.47;1.88;;;9.50;99.90;;;;;;5039929;28;20526;-71
2024/03/23 06:40:26;;;;;;;8.23;1.58;;;9.60;99.90;;;;;;5041006;28;20040;-71
2024/03/23 06:42:51;;;;;;;8.57;1.67;;;9.60;99.90;;;;;;5022940;28;20021;-71
2024/03/23 06:45:22;;;;;;;5.55;2.60;;;9.60;99.90;;;;;;5036707;28;20556;-71
2024/03/23 06:47:50;;;;;;;10.73;3.25;;;9.70;99.90;;;;;;5018807;28;20108;-70
2024/03/23 06:50:15;;;;;;;11.27;5.63;;;9.80;99.90;;;;;;5037264;28;20091;-71
2024/03/23 06:52:42;;;;;;;8.13;4.40;;;9.70;99.90;;;;;;5034187;28;20033;-71
2024/03/23 06:55:08;;;;;;;4.90;2.15;;;9.80;99.90;;;;;;5040898;28;20029;-71
2024/03/23 06:57:34;;;;;;;5.50;2.60;;;9.80;99.90;;;;;;5040740;28;20112;-71
2024/03/23 07:00:00;;;;;;;9.38;3.35;;;9.70;99.90;;;;;;5041411;28;20682;-70
2024/03/23 07:02:26;;;;;;;11.35;3.22;;;9.80;99.90;;;;;;5039861;28;20554;-72
2024/03/23 07:04:51;;;;;;;7.90;2.13;;;9.70;99.90;;;;;;5036916;28;20039;-72
2024/03/23 07:07:17;;;;;;;9.80;3.25;;;9.70;99.90;;;;;;5036832;28;20025;-70
2024/03/23 07:09:43;;;;;;;15.27;4.00;;;9.70;99.90;;;;;;5037071;28;20538;-70
2024/03/23 07:12:09;;;;;;;19.17;5.97;;;9.60;99.90;;;;;;5040316;28;20089;-70
2024/03/23 07:14:34;;;;;;;11.23;3.45;;;9.60;99.90;;;;;;5038616;28;20111;-71
2024/03/23 07:17:00;;;;;;;9.27;4.13;;;9.70;99.90;;;;;;5041071;28;20499;-71
2024/03/23 07:19:26;;;;;;;7.05;2.40;;;9.80;99.90;;;;;;5037143;28;20025;-71
2024/03/23 07:21:52;;;;;;;8.57;2.15;;;9.80;99.90;;;;;;5036505;28;20060;-72
2024/03/23 07:24:18;;;;;;;13.77;6.53;;;9.80;99.90;;;;;;5018868;28;20057;-72
2024/03/23 07:26:44;;;;;;;12.40;5.28;;;9.80;99.90;;;;;;5039111;28;20040;-72
2024/03/23 07:29:09;;;;;;;9.43;3.03;;;9.80;99.90;;;;;;5021945;28;20038;-72
2024/03/23 07:31:35;;;;;;;13.95;5.00;;;9.80;99.90;;;;;;5040177;28;20032;-72
2024/03/23 07:34:01;;;;;;;9.13;2.85;;;9.80;99.90;;;;;;5041178;28;20033;-72
2024/03/23 07:36:27;;;;;;;33.40;8.98;;;9.60;99.90;;;;;;5035501;28;20033;-72
2024/03/23 07:38:53;;;;;;;64.18;20.23;;;9.70;99.90;;;;;;5035974;28;20021;-72
2024/03/23 07:41:20;;;;;;;55.15;16.95;;;9.60;99.90;;;;;;5036649;28;20040;-72
2024/03/23 07:43:47;;;;;;;26.90;8.80;;;9.70;99.90;;;;;;5020673;28;20073;-72
2024/03/23 07:46:14;;;;;;;9.57;2.40;;;9.60;99.90;;;;;;5022282;28;20043;-72
2024/03/23 07:48:42;;;;;;;9.05;2.90;;;9.60;99.90;;;;;;5041090;28;20645;-72
2024/03/23 07:51:15;;;;;;;11.45;2.72;;;9.60;99.90;;;;;;5040763;28;20140;-72
2024/03/23 07:53:44;;;;;;;10.63;1.90;;;9.50;99.90;;;;;;5037439;28;20028;-72
2024/03/23 07:56:10;;;;;;;4.78;2.28;;;9.50;99.90;;;;;;5035168;28;20564;-71
2024/03/23 07:58:36;;;;;;;5.53;1.80;;;9.50;99.90;;;;;;5037632;28;20211;-72
2024/03/23 08:01:09;;;;;;;3.67;1.67;;;9.40;99.90;;;;;;5039748;28;20033;-72
2024/03/23 08:03:36;;;;;;;6.05;1.80;;;9.40;99.90;;;;;;5037684;28;20779;-72
2024/03/23 08:06:13;;;;;;;3.20;1.45;;;9.30;99.90;;;;;;5039196;28;20146;-72
2024/03/23 08:08:41;;;;;;;4.68;1.25;;;9.20;99.90;;;;;;5038006;28;20100;-71
2024/03/23 08:11:07;;;;;;;4.20;1.20;;;9.20;99.90;;;;;;5014209;28;20119;-67
2024/03/23 08:13:34;;;;;;;2.42;0.70;;;9.20;99.90;;;;;;5017844;28;20083;-72
2024/03/23 08:16:03;;;;;;;3.80;0.80;;;9.10;99.90;;;;;;5036358;28;20036;-74
2024/03/23 08:18:29;;;;;;;3.65;0.60;;;9.00;99.90;;;;;;5020383;28;20044;-72
2024/03/23 08:21:05;;;;;;;1.98;0.75;;;9.00;99.90;;;;;;5037471;28;20124;-74
2024/03/23 08:23:37;;;;;;;1.80;0.75;;;8.90;99.90;;;;;;5041174;28;20033;-73
2024/03/23 08:26:14;;;;;;;3.30;0.60;;;9.00;99.90;;;;;;5034827;28;20510;-72
2024/03/23 08:28:40;;;;;;;3.10;0.50;;;8.90;99.90;;;;;;5037268;28;20025;-73
2024/03/23 08:31:11;;;;;;;4.15;1.00;;;8.90;99.90;;;;;;5018033;28;20024;-74
2024/03/23 08:33:38;;;;;;;2.05;0.55;;;8.80;99.90;;;;;;5035703;28;20025;-73
2024/03/23 08:36:08;;;;;;;1.10;0.70;;;8.70;99.90;;;;;;5038443;28;20041;-75
2024/03/23 08:38:35;;;;;;;5.00;1.00;;;8.60;99.90;;;;;;5044428;28;20112;-74
2024/03/23 08:41:05;;;;;;;4.70;1.38;;;8.60;99.90;;;;;;5043220;28;20021;-74
2024/03/23 08:43:33;;;;;;;2.88;1.52;;;8.60;99.90;;;;;;5020179;28;20037;-73
2024/03/23 08:46:12;;;;;;;3.95;1.08;;;8.50;99.90;;;;;;5041666;28;20567;-74
2024/03/23 08:48:43;;;;;;;2.33;0.57;;;8.50;99.90;;;;;;5038744;28;20017;-75
2024/03/23 08:51:11;;;;;;;2.97;1.80;;;8.50;99.90;;;;;;5041397;28;20030;-77
2024/03/23 08:53:37;;;;;;;2.70;0.77;;;8.50;99.90;;;;;;5042947;28;20025;-77
2024/03/23 08:56:05;;;;;;;2.30;1.50;;;8.50;99.90;;;;;;5043138;28;20072;-76
2024/03/23 08:58:32;;;;;;;3.83;0.70;;;8.50;99.90;;;;;;5044442;28;20033;-75
2024/03/23 09:01:15;;;;;;;1.88;0.90;;;8.60;99.90;;;;;;5040754;28;20785;-76
2024/03/23 09:03:41;;;;;;;3.22;0.93;;;8.50;99.90;;;;;;5041780;28;20502;-76
2024/03/23 09:06:11;;;;;;;3.50;0.70;;;8.50;99.90;;;;;;5039215;28;20048;-77
2024/03/23 09:08:37;;;;;;;1.77;0.60;;;8.50;99.90;;;;;;5024332;28;20399;-74
2024/03/23 09:11:07;;;;;;;3.58;0.60;;;8.60;99.90;;;;;;5044351;28;20798;-74
2024/03/23 09:13:34;;;;;;;3.92;1.35;;;8.60;99.90;;;;;;5042773;28;20040;-72
2024/03/23 09:16:00;;;;;;;8.32;0.93;;;8.60;99.90;;;;;;5043040;28;20144;-72
2024/03/23 09:18:26;;;;;;;2.95;0.90;;;8.60;99.90;;;;;;5042108;28;20033;-73
2024/03/23 09:20:53;;;;;;;5.95;0.93;;;8.60;99.90;;;;;;5039069;28;20036;-73
2024/03/23 09:23:19;;;;;;;2.47;0.85;;;8.60;99.90;;;;;;5041470;28;20451;-73
2024/03/23 09:25:45;;;;;;;5.13;1.33;;;8.60;99.90;;;;;;5023207;28;20038;-73
2024/03/23 09:28:11;;;;;;;12.75;8.23;;;8.60;99.90;;;;;;5040625;28;20084;-74
2024/03/23 09:30:42;;;;;;;11.45;5.43;;;8.60;99.90;;;;;;5025136;28;20033;-73
2024/03/23 09:33:09;;;;;;;7.75;4.28;;;8.70;99.90;;;;;;5042754;28;20556;-73
2024/03/23 09:35:42;;;;;;;7.38;2.58;;;8.60;99.90;;;;;;5040130;28;20032;-73
2024/03/23 09:38:09;;;;;;;6.55;3.17;;;8.60;99.90;;;;;;5040438;28;20482;-73
2024/03/23 09:40:40;;;;;;;9.85;4.78;;;8.50;99.90;;;;;;5041695;28;20098;-70
2024/03/23 09:43:07;;;;;;;9.57;4.95;;;8.50;99.90;;;;;;5040543;28;20026;-74
2024/03/23 09:45:38;;;;;;;11.38;3.40;;;8.50;99.90;;;;;;5040958;28;20033;-76
2024/03/23 09:48:05;;;;;;;10.55;3.90;;;8.50;99.90;;;;;;5042362;28;20410;-74
2024/03/23 09:50:31;;;;;;;9.07;2.92;;;8.50;99.90;;;;;;5041661;28;20025;-74
2024/03/23 09:52:57;;;;;;;6.47;3.65;;;8.50;99.90;;;;;;5025422;28;20036;-76
2024/03/23 09:55:24;;;;;;;12.15;4.20;;;8.50;99.90;;;;;;5040387;28;20029;-74
2024/03/23 09:57:50;;;;;;;8.40;4.20;;;8.40;99.90;;;;;;5023831;28;20033;-74
2024/03/23 10:00:16;;;;;;;6.55;3.67;;;8.40;99.90;;;;;;5041410;28;20593;-74
2024/03/23 10:02:42;;;;;;;10.65;3.85;;;8.40;99.90;;;;;;5023280;28;20464;-76
2024/03/23 10:05:24;;;;;;;14.57;4.18;;;8.50;99.90;;;;;;5042649;28;20029;-75
2024/03/23 10:07:50;;;;;;;12.48;4.13;;;8.40;99.90;;;;;;5037831;28;20110;-75
2024/03/23 10:10:17;;;;;;;7.35;1.10;;;8.40;99.90;;;;;;5040369;28;20079;-75
2024/03/23 10:12:47;;;;;;;5.55;1.27;;;8.50;99.90;;;;;;5040728;28;20029;-74
2024/03/23 10:15:25;;;;;;;2.67;1.02;;;8.30;99.90;;;;;;5040285;28;20044;-75
2024/03/23 10:17:52;;;;;;;6.68;1.38;;;8.30;99.90;;;;;;5039909;28;20702;-74
2024/03/23 10:20:24;;;;;;;4.68;1.10;;;8.30;99.90;;;;;;5041267;28;20029;-73
2024/03/23 10:22:53;;;;;;;2.25;0.85;;;8.40;99.90;;;;;;5043650;28;20037;-74
2024/03/23 10:25:23;;;;;;;5.30;2.15;;;8.30;99.90;;;;;;5040185;28;20044;-74
2024/03/23 10:28:01;;;;;;;7.53;2.72;;;8.30;99.90;;;;;;5021366;28;20300;-75
2024/03/23 10:30:27;;;;;;;8.27;1.23;;;8.40;99.90;;;;;;5009673;28;20701;-73
2024/03/23 10:33:09;;;;;;;5.50;1.20;;;8.50;99.90;;;;;;5039883;28;20700;-71
2024/03/23 10:35:37;;;;;;;4.88;1.20;;;8.50;99.90;;;;;;5041915;28;20394;-70
2024/03/23 10:38:07;;;;;;;8.15;1.80;;;8.60;99.90;;;;;;5042769;28;20029;-74
2024/03/23 10:40:37;;;;;;;5.15;1.45;;;8.60;99.90;;;;;;5042180;28;20129;-74
2024/03/23 10:43:03;;;;;;;10.05;2.22;;;8.60;99.90;;;;;;5039089;28;20032;-73
2024/03/23 10:45:30;;;;;;;3.28;1.00;;;8.70;99.90;;;;;;5042311;28;20033;-73
2024/03/23 10:47:56;;;;;;;5.20;0.80;;;8.80;99.90;;;;;;5038983;28;20036;-73
2024/03/23 10:50:22;;;;;;;4.78;1.10;;;8.80;99.90;;;;;;5036119;28;20025;-79
2024/03/23 10:52:49;;;;;;;3.03;0.85;;;8.70;99.90;;;;;;5024584;28;20057;-75
2024/03/23 10:55:18;;;;;;;6.55;3.45;;;8.50;99.90;;;;;;5040088;28;20146;-75
2024/03/23 10:57:55;;;;;;;53.60;39.65;;;8.40;99.90;;;;;;5038595;28;20090;-75
2024/03/23 11:00:23;;;;;;;16.27;14.35;;;8.40;99.90;;;;;;5037687;28;20043;-74
2024/03/23 11:02:49;;;;;;;19.58;12.95;;;8.40;99.90;;;;;;5038542;28;20033;-75
2024/03/23 11:05:31;;;;;;;14.13;5.68;;;8.50;99.90;;;;;;5038391;28;20033;-74
2024/03/23 11:07:57;;;;;;;57.90;30.25;;;8.60;99.90;;;;;;5037860;28;20052;-74
2024/03/23 11:10:30;;;;;;;57.88;24.08;;;8.60;99.90;;;;;;5021118;28;20025;-74
2024/03/23 11:12:57;;;;;;;45.05;16.60;;;8.70;99.90;;;;;;5041013;28;20037;-75
2024/03/23 11:15:23;;;;;;;19.17;5.40;;;8.80;99.90;;;;;;5039225;28;20035;-79
2024/03/23 11:18:05;;;;;;;4.15;2.08;;;8.80;99.90;;;;;;5018091;28;20491;-73
2024/03/23 11:20:32;;;;;;;35.17;12.35;;;8.90;99.90;;;;;;5040306;28;20471;-74
2024/03/23 11:22:59;;;;;;;25.48;12.38;;;8.90;99.90;;;;;;5018317;28;20526;-74
2024/03/23 11:25:27;;;;;;;25.88;9.23;;;8.80;99.90;;;;;;5038127;28;20567;-67
2024/03/23 11:27:54;;;;;;;81.20;27.23;;;8.70;99.90;;;;;;5040407;28;20036;-72
2024/03/23 11:30:24;;;;;;;103.28;25.52;;;8.70;99.90;;;;;;5040850;28;20029;-72
2024/03/23 11:32:55;;;;;;;69.75;19.30;;;8.90;99.90;;;;;;5036755;28;20029;-70
2024/03/23 11:35:28;;;;;;;13.23;5.10;;;8.90;99.90;;;;;;5021626;28;20036;-70
2024/03/23 11:38:08;;;;;;;8.02;2.90;;;9.10;99.90;;;;;;5036930;28;20040;-71
2024/03/23 11:40:38;;;;;;;12.95;3.63;;;9.10;99.90;;;;;;5037259;28;20115;-70
2024/03/23 11:43:06;;;;;;;7.10;1.92;;;8.80;99.90;;;;;;5038539;28;20390;-74
2024/03/23 11:45:51;;;;;;;3.50;2.13;;;8.70;99.90;;;;;;5038118;28;20120;-66
2024/03/23 11:48:19;;;;;;;;;;;8.90;99.90;;;;;;5039910;28;20052;-68
2024/03/23 11:50:47;;;;;;;3.30;1.50;;;8.90;99.90;;;;;;5038068;28;21215;-72
2024/03/23 11:53:19;;;;;;;6.75;1.65;;;8.70;99.90;;;;;;5038793;28;20611;-74
2024/03/23 11:55:59;;;;;;;5.20;1.50;;;8.30;99.90;;;;;;5037192;28;20055;-68
2024/03/23 11:58:26;;;;;;;6.97;1.50;;;8.00;99.90;;;;;;5036586;28;20051;-74
2024/03/23 12:00:59;;;;;;;11.63;1.38;;;8.00;99.90;;;;;;5035733;28;20052;-76
2024/03/23 12:03:28;;;;;;;4.45;1.35;;;8.10;99.90;;;;;;5039331;28;20505;-76
2024/03/23 12:05:55;;;;;;;4.45;1.45;;;8.30;99.90;;;;;;5019808;28;20071;-76
2024/03/23 12:08:34;;;;;;;6.03;1.55;;;8.20;99.90;;;;;;5036508;28;20751;-74
2024/03/23 12:11:11;;;;;;;16.60;3.15;;;8.00;99.90;;;;;;5018166;28;20138;-73
2024/03/23 12:13:38;;;;;;;5.57;1.98;;;8.00;99.90;;;;;;5036521;28;20033;-73
2024/03/23 12:16:27;;;;;;;8.55;1.60;;;7.60;99.90;;;;;;5036312;28;20526;-74
2024/03/23 12:18:53;;;;;;;6.38;1.02;;;7.20;99.90;;;;;;5037608;28;20083;-75
2024/03/23 12:21:19;;;;;;;10.27;1.60;;;7.20;99.90;;;;;;5041036;28;20429;-74
2024/03/23 12:23:46;;;;;;;6.47;1.63;;;7.30;99.90;;;;;;5037890;28;20428;-75
2024/03/23 12:26:12;;;;;;;3.05;1.30;;;7.20;99.90;;;;;;5036271;28;20373;-74
2024/03/23 12:28:38;;;;;;;6.57;2.72;;;7.10;99.90;;;;;;5037739;28;20036;-74
2024/03/23 12:31:05;;;;;;;8.00;1.65;;;7.30;99.90;;;;;;5018963;28;20079;-74
2024/03/23 12:33:31;;;;;;;7.85;1.27;;;7.60;99.90;;;;;;5038076;28;20029;-74
2024/03/23 12:35:57;;;;;;;6.35;1.27;;;7.90;99.90;;;;;;5038154;28;20053;-72
2024/03/23 12:38:23;;;;;;;4.32;1.10;;;8.30;99.90;;;;;;5040381;28;20032;-73
2024/03/23 12:40:49;;;;;;;4.28;0.98;;;8.60;99.90;;;;;;5036509;28;20033;-69
2024/03/23 12:43:16;;;;;;;3.72;1.02;;;8.80;99.90;;;;;;5036974;28;20025;-70
2024/03/23 12:45:46;;;;;;;6.82;1.30;;;8.80;99.90;;;;;;5037781;28;20029;-74
2024/03/23 12:48:11;;;;;;;8.25;2.25;;;8.70;99.90;;;;;;5036350;28;20413;-74
2024/03/23 12:50:37;;;;;;;10.48;1.92;;;8.50;99.90;;;;;;5038765;28;20033;-75